Time;durP1;ratioP1;P1;durP2;ratioP2;P2;SDS_P1;SDS_P2;PMS_P1;PMS_P2;Temp;Humidity;BMP_temperature;BMP_pressure;BME280_temperature;BME280_humidity;BME280_pressure;Samples;Min_cycle;Max_cycle;Signal;HPM_P1;HPM_P2
2022/05/17 00:01:01;;;;;;;35.25;15.63;;;14.50;99.90;;;;;;5034049;28;20041;-87
2022/05/17 00:03:27;;;;;;;46.30;14.60;;;14.50;99.90;;;;;;5033836;28;20045;-88
2022/05/17 00:05:53;;;;;;;36.33;16.73;;;14.50;99.90;;;;;;5033872;28;20489;-89
2022/05/17 00:08:19;;;;;;;42.45;17.08;;;14.50;99.90;;;;;;5016139;28;20068;-89
2022/05/17 00:10:46;;;;;;;47.22;15.48;;;14.50;99.90;;;;;;5016440;28;20462;-89
2022/05/17 00:13:12;;;;;;;40.45;15.40;;;14.50;99.90;;;;;;5033580;28;20050;-89
2022/05/17 00:15:45;;;;;;;38.92;15.38;;;14.40;99.90;;;;;;5033671;28;20191;-89
2022/05/17 00:18:11;;;;;;;;;;;14.40;99.90;;;;;;5034095;28;20072;-90
2022/05/17 00:20:39;;;;;;;43.65;15.60;;;14.40;99.90;;;;;;5033842;28;19928;-89
2022/05/17 00:23:06;;;;;;;35.97;14.70;;;14.40;99.90;;;;;;5016027;28;20061;-89
2022/05/17 00:25:33;;;;;;;47.42;15.07;;;14.40;99.90;;;;;;5016242;28;20103;-89
2022/05/17 00:27:59;;;;;;;40.88;16.77;;;14.40;99.90;;;;;;5015792;28;20073;-89
2022/05/17 00:30:25;;;;;;;40.78;15.27;;;14.40;99.90;;;;;;5016083;28;20477;-89
2022/05/17 00:32:51;;;;;;;48.17;16.45;;;14.30;99.90;;;;;;5033660;28;20136;-89
2022/05/17 00:35:16;;;;;;;43.75;15.98;;;14.30;99.90;;;;;;5032730;28;20056;-88
2022/05/17 00:37:42;;;;;;;42.47;15.25;;;14.30;99.90;;;;;;5015643;28;20064;-89
2022/05/17 00:40:10;;;;;;;40.13;17.85;;;14.30;99.90;;;;;;5015854;28;20054;-88
2022/05/17 00:42:36;;;;;;;42.67;16.00;;;14.30;99.90;;;;;;5033589;28;20051;-88
2022/05/17 00:45:02;;;;;;;37.72;14.27;;;14.20;99.90;;;;;;5015751;28;20068;-88
2022/05/17 00:47:37;;;;;;;34.22;15.75;;;14.20;99.90;;;;;;5033524;28;20049;-88
2022/05/17 00:50:11;;;;;;;42.78;15.88;;;14.20;99.90;;;;;;5033562;28;20063;-88
2022/05/17 00:52:43;;;;;;;40.40;15.18;;;14.20;99.90;;;;;;5033469;28;20096;-90
2022/05/17 00:55:17;;;;;;;46.78;15.70;;;14.20;99.90;;;;;;5033809;28;20129;-89
2022/05/17 00:57:58;;;;;;;48.67;15.07;;;14.20;99.90;;;;;;5034956;28;20115;-88
2022/05/17 01:00:29;;;;;;;38.75;14.93;;;14.10;99.90;;;;;;5018698;28;20072;-89
2022/05/17 01:03:02;;;;;;;44.55;15.00;;;14.10;99.90;;;;;;5018837;28;20088;-90
2022/05/17 01:05:30;;;;;;;46.90;16.13;;;14.10;99.90;;;;;;5018568;28;20409;-89
2022/05/17 01:07:57;;;;;;;31.92;14.35;;;14.20;99.90;;;;;;5015779;28;20034;-89
2022/05/17 01:10:26;;;;;;;44.72;15.30;;;14.10;99.90;;;;;;5033172;28;20493;-89
2022/05/17 01:15:37;;;;;;;49.20;15.70;;;14.10;99.90;;;;;;5015751;28;20072;-89
2022/05/17 01:18:04;;;;;;;44.92;15.60;;;14.10;99.90;;;;;;5033183;28;20072;-89
2022/05/17 01:20:30;;;;;;;40.78;15.27;;;14.00;99.90;;;;;;5033113;28;20099;-88
2022/05/17 01:22:56;;;;;;;44.38;15.65;;;14.00;99.90;;;;;;5015404;28;20436;-89
2022/05/17 01:25:22;;;;;;;42.08;16.15;;;14.00;99.90;;;;;;5033168;28;20084;-89
2022/05/17 01:27:55;;;;;;;42.17;14.77;;;14.00;99.90;;;;;;5033214;28;20465;-89
2022/05/17 01:30:27;;;;;;;36.42;14.88;;;14.00;99.90;;;;;;5033084;28;20046;-89
2022/05/17 01:32:53;;;;;;;40.00;14.93;;;14.00;99.90;;;;;;5015615;28;20091;-94
2022/05/17 01:35:20;;;;;;;45.17;15.65;;;14.00;99.90;;;;;;5015332;28;20393;-89
2022/05/17 01:37:49;;;;;;;45.03;15.65;;;13.90;99.90;;;;;;5032783;28;20054;-89
2022/05/17 01:40:14;;;;;;;43.55;17.35;;;13.90;99.90;;;;;;5015592;28;20083;-89
2022/05/17 01:42:40;;;;;;;48.80;15.13;;;13.90;99.90;;;;;;5032926;28;20479;-90
2022/05/17 01:45:06;;;;;;;43.38;15.88;;;13.90;99.90;;;;;;5015742;28;20048;-89
2022/05/17 01:47:32;;;;;;;37.00;14.68;;;13.90;99.90;;;;;;5036525;28;20057;-90
2022/05/17 01:49:57;;;;;;;33.13;15.45;;;13.80;99.90;;;;;;5018967;28;20037;-89
2022/05/17 01:52:23;;;;;;;45.22;15.15;;;13.80;99.90;;;;;;5036299;28;20049;-89
2022/05/17 01:54:49;;;;;;;42.08;15.85;;;13.80;99.90;;;;;;5018749;28;20057;-89
2022/05/17 01:57:14;;;;;;;47.80;15.48;;;13.80;99.90;;;;;;5036252;28;20046;-89
2022/05/17 01:59:40;;;;;;;39.70;15.35;;;13.80;99.90;;;;;;5036025;28;20393;-91
2022/05/17 02:02:06;;;;;;;43.75;14.95;;;13.70;99.90;;;;;;5036274;28;20053;-89
2022/05/17 02:04:32;;;;;;;46.45;15.27;;;13.80;99.90;;;;;;5036064;28;20037;-89
2022/05/17 02:06:58;;;;;;;36.92;17.20;;;13.70;99.90;;;;;;5018599;28;20046;-92
2022/05/17 02:09:23;;;;;;;41.75;16.80;;;13.70;99.90;;;;;;5036896;28;20048;-92
2022/05/17 02:11:49;;;;;;;40.15;16.10;;;13.70;99.90;;;;;;5036396;28;20053;-92
2022/05/17 02:14:15;;;;;;;41.15;15.80;;;13.70;99.90;;;;;;5021535;28;20041;-90
2022/05/17 02:16:41;;;;;;;49.72;17.13;;;13.70;99.90;;;;;;5037255;28;20104;-90
2022/05/17 02:19:07;;;;;;;44.70;15.35;;;13.70;99.90;;;;;;5039316;28;20104;-90
2022/05/17 02:21:36;;;;;;;47.42;15.27;;;13.60;99.90;;;;;;5039145;28;20068;-91
2022/05/17 02:24:03;;;;;;;46.47;16.70;;;13.60;99.90;;;;;;5020692;28;20045;-90
2022/05/17 02:26:30;;;;;;;35.80;14.57;;;13.60;99.90;;;;;;5037956;28;20519;-91
2022/05/17 02:28:56;;;;;;;44.95;16.65;;;13.60;99.90;;;;;;5020478;28;20054;-91
2022/05/17 02:31:22;;;;;;;41.67;15.52;;;13.60;99.90;;;;;;5037111;28;20052;-88
2022/05/17 02:33:47;;;;;;;45.33;15.70;;;13.60;99.90;;;;;;5035585;28;20046;-89
2022/05/17 02:36:13;;;;;;;41.55;16.45;;;13.50;99.90;;;;;;5017881;28;20055;-89
2022/05/17 02:38:40;;;;;;;43.65;16.73;;;13.50;99.90;;;;;;5017770;28;20049;-89
2022/05/17 02:41:06;;;;;;;46.47;16.65;;;13.50;99.90;;;;;;5020357;28;20052;-90
2022/05/17 02:43:33;;;;;;;42.95;16.63;;;13.60;99.90;;;;;;5021954;28;20046;-91
2022/05/17 02:45:59;;;;;;;45.45;16.33;;;13.50;99.90;;;;;;5037193;28;20053;-91
2022/05/17 02:48:24;;;;;;;45.22;15.85;;;13.50;99.90;;;;;;5021708;28;20091;-90
2022/05/17 02:50:50;;;;;;;40.00;15.55;;;13.50;99.90;;;;;;5021032;28;20099;-90
2022/05/17 02:53:16;;;;;;;39.78;16.15;;;13.50;99.90;;;;;;5019938;28;20088;-90
2022/05/17 02:55:42;;;;;;;42.58;15.65;;;13.50;99.90;;;;;;5018985;28;20103;-90
2022/05/17 02:58:07;;;;;;;43.88;15.13;;;13.50;99.90;;;;;;5017679;28;20448;-90
2022/05/17 03:00:33;;;;;;;45.58;15.88;;;13.50;99.90;;;;;;5035729;28;20045;-92
2022/05/17 03:02:59;;;;;;;37.22;15.23;;;13.50;99.90;;;;;;5018231;28;20052;-91
2022/05/17 03:05:25;;;;;;;40.40;15.23;;;13.50;99.90;;;;;;5037838;28;20393;-90
2022/05/17 03:07:51;;;;;;;50.20;16.23;;;13.40;99.90;;;;;;5035085;28;20049;-88
2022/05/17 03:10:17;;;;;;;45.13;15.77;;;13.40;99.90;;;;;;5017578;28;20060;-89
2022/05/17 03:12:44;;;;;;;45.03;16.15;;;13.40;99.90;;;;;;5017220;28;20045;-89
2022/05/17 03:15:15;;;;;;;39.10;14.18;;;13.40;99.90;;;;;;5034953;28;20037;-89
2022/05/17 03:17:40;;;;;;;36.45;15.40;;;13.30;99.90;;;;;;5034820;28;20075;-89
2022/05/17 03:20:06;;;;;;;37.83;14.25;;;13.30;99.90;;;;;;5034747;28;20393;-89
2022/05/17 03:22:33;;;;;;;39.83;15.02;;;13.30;99.90;;;;;;5034838;28;20140;-90
2022/05/17 03:24:58;;;;;;;40.40;14.23;;;13.20;99.90;;;;;;5016978;28;20115;-90
2022/05/17 03:27:24;;;;;;;33.25;13.80;;;13.20;99.90;;;;;;5035284;28;20441;-90
2022/05/17 03:29:50;;;;;;;35.58;13.85;;;13.20;99.90;;;;;;5020940;28;20045;-90
2022/05/17 03:32:16;;;;;;;43.05;15.25;;;13.20;99.90;;;;;;5037015;28;20046;-91
2022/05/17 03:34:41;;;;;;;40.60;12.80;;;13.20;99.90;;;;;;5019750;28;20045;-90
2022/05/17 03:37:07;;;;;;;36.80;14.57;;;13.10;99.90;;;;;;5016534;28;20050;-91
2022/05/17 03:39:33;;;;;;;35.50;14.45;;;13.10;99.90;;;;;;5034436;28;20099;-91
2022/05/17 03:41:59;;;;;;;34.17;12.93;;;13.20;99.90;;;;;;5034349;28;20037;-91
2022/05/17 03:44:25;;;;;;;37.78;13.30;;;13.10;99.90;;;;;;5016441;28;20409;-91
2022/05/17 03:46:50;;;;;;;45.28;14.95;;;13.20;99.90;;;;;;5034098;28;20094;-91
2022/05/17 03:49:16;;;;;;;38.08;14.05;;;13.20;99.90;;;;;;5034183;28;20048;-91
2022/05/17 03:51:41;;;;;;;44.95;14.20;;;13.10;99.90;;;;;;5016267;28;20124;-91
2022/05/17 03:54:07;;;;;;;44.63;13.73;;;13.10;99.90;;;;;;5016515;28;20045;-91
2022/05/17 03:56:33;;;;;;;39.28;12.80;;;13.20;99.90;;;;;;5034069;28;20046;-92
2022/05/17 03:58:59;;;;;;;44.88;13.65;;;13.20;99.90;;;;;;5016384;28;20057;-90
2022/05/17 04:01:24;;;;;;;31.67;13.55;;;13.20;99.90;;;;;;5016084;28;20037;-89
2022/05/17 04:03:50;;;;;;;41.15;14.82;;;13.20;99.90;;;;;;5033821;28;20049;-89
2022/05/17 04:06:16;;;;;;;33.88;12.90;;;13.20;99.90;;;;;;5016294;28;20048;-90
2022/05/17 04:08:41;;;;;;;33.15;14.25;;;13.20;99.90;;;;;;5015945;28;20073;-87
2022/05/17 04:11:07;;;;;;;39.13;13.68;;;13.20;99.90;;;;;;5016086;28;20057;-89
2022/05/17 04:13:34;;;;;;;37.28;12.32;;;13.30;99.90;;;;;;5015911;28;20041;-89
2022/05/17 04:16:01;;;;;;;40.13;13.75;;;13.30;99.90;;;;;;5033681;28;20037;-89
2022/05/17 04:18:28;;;;;;;33.00;12.23;;;13.30;99.90;;;;;;5015841;28;20045;-89
2022/05/17 04:21:01;;;;;;;44.30;12.52;;;13.40;99.90;;;;;;5016045;28;20045;-89
2022/05/17 04:23:27;;;;;;;37.08;12.23;;;13.60;99.90;;;;;;5034374;28;20053;-89
2022/05/17 04:25:53;;;;;;;29.60;11.23;;;13.70;99.90;;;;;;5015773;28;20042;-89
2022/05/17 04:28:19;;;;;;;37.05;12.55;;;13.70;99.90;;;;;;5033638;28;20038;-89
2022/05/17 04:30:44;;;;;;;29.25;11.13;;;13.90;99.90;;;;;;5034448;28;20044;-91
2022/05/17 04:33:11;;;;;;;33.33;10.70;;;14.00;99.90;;;;;;5016789;28;20037;-92
2022/05/17 04:35:36;;;;;;;33.58;11.32;;;14.10;99.90;;;;;;5015886;28;20069;-91
2022/05/17 04:38:03;;;;;;;31.75;11.40;;;14.20;99.90;;;;;;5015728;28;20476;-91
2022/05/17 04:40:29;;;;;;;36.78;11.23;;;14.30;99.90;;;;;;5015555;28;20504;-91
2022/05/17 04:42:57;;;;;;;33.53;12.13;;;14.40;99.90;;;;;;5015912;28;20053;-91
2022/05/17 04:45:23;;;;;;;42.78;13.60;;;14.50;99.90;;;;;;5015762;28;20072;-92
2022/05/17 04:47:48;;;;;;;28.17;10.75;;;14.60;99.90;;;;;;5015469;28;20382;-91
2022/05/17 04:50:15;;;;;;;35.67;11.18;;;14.70;99.90;;;;;;5033413;28;20504;-91
2022/05/17 04:52:41;;;;;;;33.40;10.48;;;14.80;99.90;;;;;;5033415;28;20064;-92
2022/05/17 04:55:08;;;;;;;32.08;11.20;;;14.90;99.90;;;;;;5033392;28;20034;-91
2022/05/17 04:57:35;;;;;;;37.20;12.25;;;15.00;99.90;;;;;;5033037;28;20403;-90
2022/05/17 05:00:03;;;;;;;28.30;10.23;;;15.10;99.90;;;;;;5016304;28;20049;-91
2022/05/17 05:02:29;;;;;;;33.25;9.90;;;15.10;99.90;;;;;;5033117;28;20045;-89
2022/05/17 05:04:55;;;;;;;30.63;11.05;;;15.10;99.90;;;;;;5034068;28;20072;-90
2022/05/17 05:07:21;;;;;;;30.08;11.85;;;15.20;99.90;;;;;;5015339;28;20080;-88
2022/05/17 05:09:46;;;;;;;24.88;10.27;;;15.30;99.90;;;;;;5015578;28;20049;-89
2022/05/17 05:12:12;;;;;;;27.73;9.95;;;15.30;99.90;;;;;;5032988;28;20456;-89
2022/05/17 05:14:37;;;;;;;33.53;10.88;;;15.30;99.90;;;;;;5015382;28;20057;-85
2022/05/17 05:17:03;;;;;;;26.88;10.32;;;15.40;99.90;;;;;;5015366;28;20125;-86
2022/05/17 05:19:29;;;;;;;30.40;10.15;;;15.40;99.90;;;;;;5015445;28;20452;-88
2022/05/17 05:21:54;;;;;;;33.85;9.93;;;15.60;99.90;;;;;;5018590;28;20048;-87
2022/05/17 05:24:20;;;;;;;29.67;9.38;;;15.60;99.90;;;;;;5019088;28;20580;-86
2022/05/17 05:26:46;;;;;;;39.42;11.38;;;15.70;99.90;;;;;;5036856;28;20382;-86
2022/05/17 05:29:11;;;;;;;33.85;11.02;;;15.60;99.90;;;;;;5018818;28;20033;-87
2022/05/17 05:31:37;;;;;;;31.10;9.07;;;15.60;99.90;;;;;;5018880;28;20057;-87
2022/05/17 05:34:03;;;;;;;25.70;9.55;;;15.70;99.90;;;;;;5036449;28;20084;-87
2022/05/17 05:36:29;;;;;;;36.53;10.02;;;15.90;99.90;;;;;;5036675;28;20409;-88
2022/05/17 05:38:55;;;;;;;38.13;9.82;;;16.00;99.90;;;;;;5018844;28;20132;-87
2022/05/17 05:41:21;;;;;;;31.67;10.23;;;16.20;99.90;;;;;;5036380;28;20565;-88
2022/05/17 05:43:46;;;;;;;30.88;9.77;;;16.30;99.90;;;;;;5018592;28;20132;-87
2022/05/17 05:46:12;;;;;;;33.65;9.57;;;16.30;99.90;;;;;;5036279;28;20053;-88
2022/05/17 05:48:38;;;;;;;27.80;9.68;;;16.30;99.90;;;;;;5018893;28;20133;-87
2022/05/17 05:51:03;;;;;;;27.20;9.23;;;16.40;99.90;;;;;;5036276;28;20132;-89
2022/05/17 05:53:29;;;;;;;34.17;9.88;;;16.40;99.90;;;;;;5018677;28;20095;-88
2022/05/17 05:56:01;;;;;;;30.45;9.65;;;16.40;99.90;;;;;;5036225;28;20416;-88
2022/05/17 05:58:35;;;;;;;35.17;9.43;;;16.50;99.90;;;;;;5018549;28;20053;-87
2022/05/17 06:01:01;;;;;;;36.58;10.20;;;16.60;99.90;;;;;;5018415;28;20136;-87
2022/05/17 06:03:27;;;;;;;29.27;10.13;;;16.70;99.90;;;;;;5035968;28;20124;-87
2022/05/17 06:05:54;;;;;;;26.83;9.05;;;16.70;99.90;;;;;;5018550;28;20045;-88
2022/05/17 06:08:21;;;;;;;26.80;9.82;;;16.80;99.90;;;;;;5035861;28;20488;-88
2022/05/17 06:10:47;;;;;;;29.60;8.65;;;17.00;99.90;;;;;;5018198;28;20422;-88
2022/05/17 06:13:14;;;;;;;29.50;8.85;;;17.20;99.90;;;;;;5018132;28;20508;-88
2022/05/17 06:15:40;;;;;;;30.23;9.18;;;17.30;99.90;;;;;;5018324;28;20528;-88
2022/05/17 06:18:07;;;;;;;38.67;8.25;;;17.50;99.90;;;;;;5017950;28;20412;-88
2022/05/17 06:20:34;;;;;;;25.42;7.88;;;17.60;99.90;;;;;;5018218;28;20053;-86
2022/05/17 06:23:00;;;;;;;24.67;7.30;;;17.70;99.90;;;;;;5018264;28;20076;-86
2022/05/17 06:25:26;;;;;;;26.77;9.13;;;17.90;99.90;;;;;;5017771;28;20049;-84
2022/05/17 06:27:51;;;;;;;30.27;8.98;;;17.90;99.90;;;;;;5018074;28;20053;-84
2022/05/17 06:30:18;;;;;;;25.55;8.65;;;18.00;99.90;;;;;;5017686;28;20045;-86
2022/05/17 06:32:44;;;;;;;33.72;7.72;;;18.10;99.90;;;;;;5016989;28;20479;-86
2022/05/17 06:35:11;;;;;;;30.58;7.82;;;18.10;99.90;;;;;;5035640;28;20041;-85
2022/05/17 06:37:37;;;;;;;25.20;7.63;;;18.00;99.90;;;;;;5035270;28;20081;-86
2022/05/17 06:40:04;;;;;;;23.55;6.80;;;18.10;99.90;;;;;;5017557;28;20069;-86
2022/05/17 06:42:30;;;;;;;33.60;7.70;;;18.20;99.90;;;;;;5017598;28;20549;-85
2022/05/17 06:44:56;;;;;;;29.63;8.75;;;18.20;99.90;;;;;;5017846;28;20045;-88
2022/05/17 06:47:22;;;;;;;26.13;7.38;;;18.30;99.90;;;;;;5035379;28;20103;-85
2022/05/17 06:49:48;;;;;;;24.73;6.25;;;18.30;99.90;;;;;;5035344;28;20370;-86
2022/05/17 06:52:14;;;;;;;28.77;7.05;;;18.40;99.90;;;;;;5035247;28;20088;-85
2022/05/17 06:54:43;;;;;;;25.50;6.97;;;18.40;99.90;;;;;;5021249;28;20038;-85
2022/05/17 06:57:14;;;;;;;22.80;7.20;;;18.50;99.90;;;;;;5025552;28;20050;-87
2022/05/17 06:59:41;;;;;;;27.10;6.80;;;18.40;99.90;;;;;;4997486;28;20133;-87
2022/05/17 07:02:07;;;;;;;26.55;6.95;;;18.60;99.90;;;;;;4997324;28;20096;-85
2022/05/17 07:04:34;;;;;;;29.25;7.00;;;18.70;99.90;;;;;;4997678;28;20045;-85
2022/05/17 07:07:00;;;;;;;29.80;7.38;;;18.70;99.90;;;;;;4997473;28;20050;-86
2022/05/17 07:09:27;;;;;;;24.85;6.57;;;18.70;99.90;;;;;;4997313;28;20046;-86
2022/05/17 07:14:37;;;;;;;29.67;10.65;;;19.00;99.90;;;;;;5015083;28;20045;-84
2022/05/17 07:17:22;;;;;;;25.80;8.18;;;19.20;99.90;;;;;;5000398;28;20432;-85
2022/05/17 07:19:48;;;;;;;23.02;6.75;;;19.10;99.90;;;;;;5034597;28;20037;-85
2022/05/17 07:22:14;;;;;;;23.00;6.57;;;19.20;99.90;;;;;;5016851;28;20041;-85
2022/05/17 07:24:41;;;;;;;24.20;6.75;;;19.30;99.90;;;;;;5016507;28;20073;-86
2022/05/17 07:27:09;;;;;;;26.73;7.07;;;19.30;99.90;;;;;;5034144;28;20416;-86
2022/05/17 07:29:35;;;;;;;26.98;7.10;;;19.40;99.90;;;;;;5028377;28;20046;-85
2022/05/17 07:32:01;;;;;;;31.77;7.88;;;19.50;99.90;;;;;;4999638;28;20583;-85
2022/05/17 07:34:27;;;;;;;23.02;6.90;;;19.50;99.90;;;;;;5014638;28;20045;-85
2022/05/17 07:36:54;;;;;;;27.90;6.43;;;19.70;99.90;;;;;;5013965;28;20050;-85
2022/05/17 07:39:20;;;;;;;24.55;6.10;;;19.80;99.90;;;;;;4996704;28;20391;-85
2022/05/17 07:41:45;;;;;;;27.00;6.93;;;19.80;99.90;;;;;;5014500;28;20037;-85
2022/05/17 07:44:11;;;;;;;26.23;6.32;;;20.00;99.90;;;;;;4996081;28;20180;-83
2022/05/17 07:46:37;;;;;;;28.58;6.97;;;20.10;99.90;;;;;;5015310;28;20043;-86
2022/05/17 07:49:03;;;;;;;27.67;8.15;;;20.30;99.90;;;;;;5015551;28;20041;-83
2022/05/17 07:51:29;;;;;;;26.83;6.72;;;20.40;99.90;;;;;;5015599;28;20052;-84
2022/05/17 07:53:55;;;;;;;26.60;7.07;;;20.50;99.90;;;;;;5015922;28;20064;-86
2022/05/17 07:56:20;;;;;;;22.55;6.70;;;20.60;99.90;;;;;;5015979;28;20049;-85
2022/05/17 07:58:46;;;;;;;20.95;6.80;;;20.60;99.90;;;;;;5033242;28;20081;-85
2022/05/17 08:01:12;;;;;;;28.90;6.90;;;20.60;99.90;;;;;;5015899;28;20464;-84
2022/05/17 08:03:38;;;;;;;25.30;6.30;;;20.70;99.90;;;;;;5015693;28;20492;-86
2022/05/17 08:06:05;;;;;;;25.23;8.00;;;20.70;99.90;;;;;;5016804;28;20484;-88
2022/05/17 08:08:31;;;;;;;22.20;6.88;;;20.50;99.90;;;;;;5016517;28;20049;-92
2022/05/17 08:10:57;;;;;;;21.27;5.88;;;20.70;99.90;;;;;;5017364;28;20045;-93
2022/05/17 08:13:23;;;;;;;26.52;6.22;;;20.60;99.90;;;;;;5018705;28;20041;-86
2022/05/17 08:15:50;;;;;;;26.98;7.63;;;20.70;99.90;;;;;;5015667;28;20049;-85
2022/05/17 08:18:16;;;;;;;32.30;7.10;;;20.80;99.90;;;;;;5015083;28;20049;-85
2022/05/17 08:20:42;;;;;;;28.92;5.85;;;20.90;99.90;;;;;;5015582;28;20048;-85
2022/05/17 08:23:08;;;;;;;24.67;6.57;;;21.00;99.90;;;;;;5015923;28;20057;-83
2022/05/17 08:28:18;;;;;;;26.55;6.85;;;21.00;99.90;;;;;;5015400;28;20122;-85
2022/05/17 08:30:45;;;;;;;21.75;6.20;;;21.00;99.90;;;;;;5014733;28;20477;-85
2022/05/17 08:33:15;;;;;;;29.75;7.00;;;21.10;99.90;;;;;;5032704;28;20140;-85
2022/05/17 08:35:51;;;;;;;19.88;5.90;;;20.90;99.90;;;;;;5015563;28;20044;-85
2022/05/17 08:38:25;;;;;;;28.33;6.63;;;21.00;99.90;;;;;;5033271;28;20057;-85
2022/05/17 08:41:10;;;;;;;29.25;6.50;;;21.10;99.90;;;;;;5015672;28;20056;-86
2022/05/17 08:43:50;;;;;;;27.60;6.63;;;21.00;99.90;;;;;;5015867;28;20172;-86
2022/05/17 08:46:25;;;;;;;20.60;7.20;;;21.10;99.90;;;;;;5032328;28;20056;-86
2022/05/17 08:49:06;;;;;;;25.20;7.03;;;21.10;99.90;;;;;;5015805;28;20052;-86
2022/05/17 08:51:45;;;;;;;33.95;8.43;;;21.40;99.90;;;;;;5033251;28;20497;-86
2022/05/17 08:54:15;;;;;;;26.00;6.65;;;21.10;99.90;;;;;;5015515;28;20060;-86
2022/05/17 08:56:50;;;;;;;32.70;7.45;;;21.40;99.90;;;;;;5018505;28;20401;-86
2022/05/17 08:59:20;;;;;;;24.30;6.80;;;21.50;99.90;;;;;;5019647;28;20073;-86
2022/05/17 09:02:16;;;;;;;32.63;7.45;;;21.50;99.90;;;;;;5019635;28;20057;-86
2022/05/17 09:04:48;;;;;;;27.38;7.25;;;21.60;99.90;;;;;;5019679;28;20050;-86
2022/05/17 09:07:27;;;;;;;27.95;7.45;;;21.80;99.90;;;;;;5019773;28;20432;-86
2022/05/17 09:09:58;;;;;;;27.13;7.00;;;21.90;99.90;;;;;;5019528;28;20549;-86
2022/05/17 09:13:02;;;;;;;27.45;7.22;;;22.00;99.90;;;;;;5019536;28;20053;-86
2022/05/17 09:15:28;;;;;;;32.75;6.85;;;22.20;99.90;;;;;;4971186;28;20133;-85
2022/05/17 09:17:57;;;;;;;24.27;6.38;;;22.20;99.90;;;;;;5018992;28;20128;-85
2022/05/17 09:20:35;;;;;;;36.08;7.53;;;22.20;99.90;;;;;;5036913;28;20046;-86
2022/05/17 09:23:01;;;;;;;25.45;7.47;;;22.30;99.90;;;;;;5019012;28;20038;-86
2022/05/17 09:25:45;;;;;;;30.13;7.03;;;22.40;99.90;;;;;;5018933;28;20057;-86
2022/05/17 09:28:16;;;;;;;32.65;7.85;;;22.60;99.90;;;;;;5036923;28;20057;-86
2022/05/17 09:30:42;;;;;;;28.88;7.53;;;22.50;99.90;;;;;;5019145;28;20513;-86
2022/05/17 09:33:15;;;;;;;34.67;8.02;;;22.40;99.90;;;;;;5019237;28;20120;-85
2022/05/17 09:35:57;;;;;;;34.67;9.20;;;22.40;99.90;;;;;;5018528;28;20137;-86
2022/05/17 09:38:23;;;;;;;26.53;7.97;;;22.30;99.90;;;;;;5018842;28;20053;-86
2022/05/17 09:40:51;;;;;;;31.80;7.75;;;22.20;99.90;;;;;;5018749;28;20493;-86
2022/05/17 09:43:23;;;;;;;36.38;8.93;;;22.20;99.90;;;;;;5036646;28;20037;-86
2022/05/17 09:45:50;;;;;;;;;;;22.50;99.90;;;;;;5019313;28;20042;-86
2022/05/17 09:54:48;;;;;;;38.83;9.25;;;22.00;99.90;;;;;;5018396;28;20147;-85
2022/05/17 09:57:13;;;;;;;33.67;7.90;;;21.80;99.90;;;;;;5018562;28;20056;-85
2022/05/17 09:59:39;;;;;;;26.48;7.63;;;21.70;99.90;;;;;;5036384;28;20041;-85
2022/05/17 10:02:24;;;;;;;31.20;8.25;;;21.70;99.90;;;;;;5018307;28;20049;-85
2022/05/17 10:04:49;;;;;;;32.75;7.78;;;21.70;99.90;;;;;;5018399;28;20049;-86
2022/05/17 10:07:18;;;;;;;32.65;8.80;;;22.00;99.90;;;;;;5035914;28;20048;-86
2022/05/17 10:09:45;;;;;;;28.58;8.20;;;21.90;99.90;;;;;;5018238;28;20104;-86
2022/05/17 10:12:28;;;;;;;30.92;9.43;;;22.10;99.90;;;;;;5018425;28;20099;-88
2022/05/17 10:15:00;;;;;;;30.50;8.40;;;22.10;99.90;;;;;;5018896;28;20456;-87
2022/05/17 10:17:47;;;;;;;40.33;9.40;;;22.60;99.90;;;;;;5035732;28;20049;-86
2022/05/17 10:20:18;;;;;;;28.67;9.10;;;22.60;99.90;;;;;;5036096;28;20288;-91
2022/05/17 10:23:02;;;;;;;35.83;10.02;;;22.80;99.90;;;;;;5035961;28;20111;-88
2022/05/17 10:25:36;;;;;;;35.25;9.02;;;22.70;99.90;;;;;;5018092;28;20072;-87
2022/05/17 10:28:21;;;;;;;32.63;8.68;;;22.70;99.90;;;;;;5017108;28;20176;-88
2022/05/17 10:30:59;;;;;;;33.60;8.60;;;22.60;99.90;;;;;;5009618;28;20458;-89
2022/05/17 10:33:35;;;;;;;39.50;9.30;;;22.90;99.90;;;;;;5018182;28;20042;-88
2022/05/17 10:36:17;;;;;;;32.05;8.82;;;22.90;99.90;;;;;;5017721;28;20045;-87
2022/05/17 10:39:11;;;;;;;37.67;9.60;;;22.80;99.90;;;;;;5035562;28;20058;-87
2022/05/17 10:41:37;;;;;;;37.42;7.72;;;22.70;99.90;;;;;;4999037;28;20053;-89
2022/05/17 10:44:04;;;;;;;31.58;9.45;;;22.90;99.90;;;;;;5021662;28;20053;-88
2022/05/17 10:46:32;;;;;;;36.08;8.98;;;23.00;99.90;;;;;;4997939;28;20124;-89
2022/05/17 10:49:18;;;;;;;43.25;8.43;;;23.10;99.90;;;;;;4998134;28;20064;-89
2022/05/17 10:51:43;;;;;;;36.92;8.13;;;23.10;99.90;;;;;;4998346;28;20073;-89
2022/05/17 10:54:45;;;;;;;33.13;7.97;;;23.00;99.90;;;;;;4998449;28;20457;-88
2022/05/17 10:57:41;;;;;;;34.08;7.30;;;23.30;99.90;;;;;;4997882;28;20054;-90
2022/05/17 11:00:20;;;;;;;33.05;9.10;;;23.30;99.90;;;;;;5015990;28;20107;-89
2022/05/17 11:03:07;;;;;;;33.00;8.55;;;23.30;99.90;;;;;;5017295;28;20458;-89
2022/05/17 11:05:36;;;;;;;29.80;8.10;;;23.30;99.90;;;;;;5017832;28;20084;-87
2022/05/17 11:08:13;;;;;;;34.85;8.85;;;23.40;99.90;;;;;;5034476;28;20037;-88
2022/05/17 11:11:03;;;;;;;33.65;9.25;;;23.10;99.90;;;;;;5017051;28;20405;-88
2022/05/17 11:13:36;;;;;;;26.38;8.00;;;22.90;99.90;;;;;;5016969;28;20045;-89
2022/05/17 11:16:20;;;;;;;33.17;8.32;;;23.00;99.90;;;;;;5016994;28;20061;-88
2022/05/17 11:19:00;;;;;;;32.85;8.00;;;23.20;99.90;;;;;;5030932;28;20092;-88
2022/05/17 11:21:50;;;;;;;27.88;7.72;;;23.40;99.90;;;;;;5016863;28;20081;-88
2022/05/17 11:24:54;;;;;;;26.35;7.63;;;23.30;99.90;;;;;;5016472;28;20512;-88
2022/05/17 11:27:41;;;;;;;16.65;5.88;;;23.30;99.90;;;;;;5004161;28;20054;-88
2022/05/17 11:30:30;;;;;;;33.85;7.20;;;23.30;99.90;;;;;;5014893;28;20053;-88
2022/05/17 11:33:23;;;;;;;26.75;7.32;;;23.30;99.90;;;;;;5016846;28;20378;-88
2022/05/17 11:35:52;;;;;;;30.02;8.57;;;23.00;99.90;;;;;;5016644;28;20107;-88
2022/05/17 11:38:46;;;;;;;24.00;6.47;;;23.20;99.90;;;;;;5016452;28;20421;-89
2022/05/17 11:41:22;;;;;;;26.42;7.38;;;23.50;99.90;;;;;;5002585;28;20053;-89
2022/05/17 11:43:51;;;;;;;42.15;7.30;;;23.40;99.90;;;;;;5034193;28;20128;-89
2022/05/17 11:46:29;;;;;;;25.05;6.30;;;23.70;99.90;;;;;;5016517;28;20045;-87
2022/05/17 11:48:56;;;;;;;25.02;6.35;;;23.80;99.90;;;;;;5017244;28;20099;-87
2022/05/17 11:51:23;;;;;;;24.10;7.55;;;23.80;99.90;;;;;;5020593;28;20129;-88
2022/05/17 11:53:51;;;;;;;22.00;6.70;;;23.80;99.90;;;;;;5018237;28;20128;-94
2022/05/17 11:56:26;;;;;;;27.70;5.63;;;23.90;99.90;;;;;;5034758;28;20057;-91
2022/05/17 11:58:54;;;;;;;23.10;5.78;;;23.90;99.90;;;;;;5016501;28;20056;-86
2022/05/17 12:01:29;;;;;;;29.63;6.70;;;24.00;99.90;;;;;;5016675;28;20058;-94
2022/05/17 12:04:22;;;;;;;18.58;5.43;;;24.10;99.90;;;;;;5016447;28;20516;-93
2022/05/17 12:06:53;;;;;;;21.17;5.20;;;24.10;99.90;;;;;;5016665;28;20067;-93
2022/05/17 12:09:29;;;;;;;27.08;6.13;;;24.10;99.90;;;;;;5016128;28;20052;-90
2022/05/17 12:12:00;;;;;;;29.02;5.35;;;24.10;99.90;;;;;;5015904;28;20072;-92
2022/05/17 12:14:43;;;;;;;25.45;5.88;;;24.20;99.90;;;;;;5016069;28;20051;-88
2022/05/17 12:17:19;;;;;;;26.02;5.70;;;24.30;99.90;;;;;;5016319;28;20046;-91
2022/05/17 12:19:59;;;;;;;25.70;5.97;;;24.10;99.90;;;;;;5033829;28;20124;-90
2022/05/17 12:22:49;;;;;;;23.45;5.32;;;24.10;99.90;;;;;;5015855;28;20054;-91
2022/05/17 12:25:25;;;;;;;18.63;4.93;;;24.20;99.90;;;;;;5016205;28;20489;-90
2022/05/17 12:27:50;;;;;;;18.30;4.78;;;24.40;99.90;;;;;;5015710;28;20041;-88
2022/05/17 12:33:16;;;;;;;28.67;4.78;;;24.30;99.90;;;;;;5015853;28;20127;-89
2022/05/17 12:35:42;;;;;;;21.50;4.20;;;24.40;99.90;;;;;;5033659;28;20115;-87
2022/05/17 12:43:37;;;;;;;17.73;4.22;;;24.30;99.90;;;;;;5015608;28;20060;-91
2022/05/17 12:46:21;;;;;;;17.95;4.63;;;24.30;99.90;;;;;;5033690;28;20088;-94
2022/05/17 12:48:49;;;;;;;24.98;5.68;;;24.30;99.90;;;;;;5027437;28;20049;-93
2022/05/17 12:51:18;;;;;;;27.48;5.95;;;24.10;99.90;;;;;;5017530;28;20116;-92
2022/05/17 12:53:49;;;;;;;17.35;5.00;;;24.00;99.90;;;;;;5016008;28;20506;-93
2022/05/17 12:56:24;;;;;;;21.30;4.60;;;24.20;99.90;;;;;;5016309;28;20084;-94
2022/05/17 12:58:53;;;;;;;29.30;5.35;;;24.30;99.90;;;;;;5016461;28;20045;-92
2022/05/17 13:01:46;;;;;;;22.27;4.78;;;24.40;99.90;;;;;;5015902;28;20049;-93
2022/05/17 13:04:15;;;;;;;23.35;4.55;;;24.10;99.90;;;;;;5017092;28;20058;-93
2022/05/17 13:06:50;;;;;;;23.00;5.72;;;24.20;99.90;;;;;;5015537;28;20049;-93
2022/05/17 13:09:26;;;;;;;20.30;5.45;;;24.00;99.90;;;;;;5016479;28;20098;-94